Terminal Aerodrome Forecast
Issued by NWS

Current Version | Previous Version | Text Only | Print | Product List | Glossary On
Versions: 1 2 3 4 5 6 7 8 9 10 11 12 13 14 15 16 17 18 19 20 21 22 23 24 25 26 27 28 29 30 31 32 33 34 35 36 37 38 39 40
000
FTUS45 KSLC 290538
TAFBCE
TAF
KBCE 290538Z 2906/3006 31007KT P6SM VCSH BKN006 BKN015
     FM291300 33009KT P6SM SCT010 BKN025
     FM291800 33013G20KT P6SM BKN060
     FM300100 33007KT P6SM BKN060=

USA.gov is the U.S. government's official web portal to all federal, state and local government web resources and services.